Time;durP1;ratioP1;P1;durP2;ratioP2;P2;SDS_P1;SDS_P2;PMS_P1;PMS_P2;Temp;Humidity;BMP_temperature;BMP_pressure;BME280_temperature;BME280_humidity;BME280_pressure;Samples;Min_cycle;Max_cycle;Signal;HPM_P1;HPM_P2
2023/06/16 00:00:36;;;;;;;1.20;1.20;;;14.90;99.90;;;;;;5019928;28;20409;-70
2023/06/16 00:03:02;;;;;;;4.57;1.53;;;14.90;99.90;;;;;;5019632;28;20495;-71
2023/06/16 00:05:34;;;;;;;1.97;1.90;;;14.80;99.90;;;;;;5019809;28;20521;-71
2023/06/16 00:08:00;;;;;;;2.10;2.00;;;14.80;99.90;;;;;;5019667;28;20194;-71
2023/06/16 00:10:27;;;;;;;2.10;1.97;;;14.90;99.90;;;;;;5019785;28;20406;-71
2023/06/16 00:12:52;;;;;;;1.30;1.30;;;14.90;99.90;;;;;;5019476;28;20424;-71
2023/06/16 00:15:19;;;;;;;3.10;2.80;;;14.90;99.90;;;;;;5019889;28;20512;-71
2023/06/16 00:17:46;;;;;;;1.70;1.60;;;14.90;99.90;;;;;;5019810;28;20433;-71
2023/06/16 00:20:16;;;;;;;2.07;1.23;;;14.90;99.90;;;;;;5019615;28;20410;-70
2023/06/16 00:22:47;;;;;;;2.50;2.03;;;14.90;99.90;;;;;;5019573;28;20417;-71
2023/06/16 00:25:19;;;;;;;1.40;1.30;;;14.80;99.90;;;;;;5015505;28;20408;-71
2023/06/16 00:27:45;;;;;;;2.83;2.60;;;14.70;99.90;;;;;;5016605;28;20451;-71
2023/06/16 00:30:11;;;;;;;2.37;2.17;;;14.70;99.90;;;;;;5016491;28;20460;-71
2023/06/16 00:32:37;;;;;;;2.57;2.47;;;14.60;99.90;;;;;;5016087;28;20508;-71
2023/06/16 00:35:03;;;;;;;1.63;1.53;;;14.60;99.90;;;;;;5016416;28;20423;-71
2023/06/16 00:37:29;;;;;;;3.83;2.43;;;14.70;99.90;;;;;;5016220;28;20196;-71
2023/06/16 00:39:55;;;;;;;1.03;1.03;;;14.70;99.90;;;;;;5016440;28;20175;-71
2023/06/16 00:42:20;;;;;;;1.47;1.47;;;14.80;99.90;;;;;;5016031;28;20448;-71
2023/06/16 00:44:46;;;;;;;1.77;1.67;;;14.80;99.90;;;;;;5016206;28;20174;-70
2023/06/16 00:47:12;;;;;;;3.70;3.40;;;14.80;99.90;;;;;;5016086;28;20215;-70
2023/06/16 00:49:38;;;;;;;3.23;2.83;;;14.70;99.90;;;;;;5016304;28;20172;-71
2023/06/16 00:52:07;;;;;;;1.30;1.23;;;14.70;99.90;;;;;;4998374;28;20191;-71
2023/06/16 00:54:32;;;;;;;1.53;1.43;;;14.60;99.90;;;;;;5016025;28;20476;-71
2023/06/16 00:56:59;;;;;;;6.43;2.30;;;14.60;99.90;;;;;;5015977;28;20427;-71
2023/06/16 00:59:27;;;;;;;1.73;1.67;;;14.60;99.90;;;;;;5015924;28;20439;-72
2023/06/16 01:01:54;;;;;;;1.57;1.47;;;14.60;99.90;;;;;;5015692;28;20415;-71
2023/06/16 01:04:22;;;;;;;1.67;1.57;;;14.60;99.90;;;;;;5015792;28;20928;-71
2023/06/16 01:07:04;;;;;;;1.03;0.90;;;14.60;99.90;;;;;;5015593;28;20463;-71
2023/06/16 01:09:44;;;;;;;1.03;1.03;;;14.60;99.90;;;;;;5015733;28;20438;-71
2023/06/16 01:12:25;;;;;;;1.67;1.57;;;14.70;99.90;;;;;;5015938;28;20813;-71
2023/06/16 01:15:05;;;;;;;3.47;2.77;;;14.70;99.90;;;;;;5016041;28;20439;-70
2023/06/16 01:17:37;;;;;;;2.10;2.00;;;14.60;99.90;;;;;;5015637;28;20456;-70
2023/06/16 01:20:10;;;;;;;2.90;2.60;;;14.60;99.90;;;;;;5015668;28;20445;-70
2023/06/16 01:23:06;;;;;;;1.50;1.40;;;14.70;99.90;;;;;;5015298;28;20410;-71
2023/06/16 01:25:38;;;;;;;1.47;1.37;;;14.70;99.90;;;;;;5015755;28;20430;-71
2023/06/16 01:28:05;;;;;;;3.77;3.40;;;14.70;99.90;;;;;;5015337;28;20437;-71
2023/06/16 01:30:32;;;;;;;2.37;2.27;;;14.60;99.90;;;;;;5015273;28;20498;-70
2023/06/16 01:32:59;;;;;;;4.27;2.90;;;14.60;99.90;;;;;;5015090;28;20406;-71
2023/06/16 01:35:26;;;;;;;0.77;0.77;;;14.50;99.90;;;;;;5014907;28;20762;-71
2023/06/16 01:37:53;;;;;;;2.50;2.40;;;14.40;99.90;;;;;;5015397;28;20480;-71
2023/06/16 01:40:19;;;;;;;2.47;2.30;;;14.40;99.90;;;;;;5015496;28;20853;-69
2023/06/16 01:42:49;;;;;;;1.40;1.40;;;14.30;99.90;;;;;;5014946;28;20460;-71
2023/06/16 01:45:16;;;;;;;4.13;2.70;;;14.40;99.90;;;;;;5015140;28;20411;-71
2023/06/16 01:47:46;;;;;;;6.40;1.50;;;14.40;99.90;;;;;;5015353;28;20537;-70
2023/06/16 01:50:12;;;;;;;3.80;3.50;;;14.40;99.90;;;;;;5014962;28;20413;-70
2023/06/16 01:52:39;;;;;;;2.43;2.23;;;14.40;99.90;;;;;;5014908;28;20758;-71
2023/06/16 01:55:05;;;;;;;1.60;1.30;;;14.30;99.90;;;;;;5015068;28;20922;-71
2023/06/16 01:57:31;;;;;;;1.43;1.33;;;14.20;99.90;;;;;;5014836;28;20489;-70
2023/06/16 02:00:02;;;;;;;2.20;2.00;;;14.20;99.90;;;;;;5014716;28;20447;-71
2023/06/16 02:02:30;;;;;;;1.20;1.10;;;14.20;99.90;;;;;;5014575;28;20430;-71
2023/06/16 02:05:00;;;;;;;1.53;1.43;;;14.20;99.90;;;;;;5015066;28;20402;-70
2023/06/16 02:07:32;;;;;;;2.60;2.50;;;14.20;99.90;;;;;;5014446;28;20458;-71
2023/06/16 02:09:59;;;;;;;1.30;1.30;;;14.20;99.90;;;;;;5014925;28;20430;-71
2023/06/16 02:12:25;;;;;;;1.20;1.10;;;14.20;99.90;;;;;;5014390;28;20410;-70
2023/06/16 02:14:50;;;;;;;2.30;2.20;;;14.00;99.90;;;;;;5014511;28;20789;-70
2023/06/16 02:17:16;;;;;;;1.27;1.20;;;13.80;99.90;;;;;;5014522;28;20485;-71
2023/06/16 02:19:43;;;;;;;2.83;1.40;;;13.70;99.90;;;;;;5014550;28;20410;-70
2023/06/16 02:22:09;;;;;;;1.27;1.17;;;13.80;99.90;;;;;;5014192;28;20171;-70
2023/06/16 02:24:35;;;;;;;1.40;1.30;;;13.70;99.90;;;;;;5014363;28;20402;-71
2023/06/16 02:27:03;;;;;;;3.33;1.73;;;13.60;99.90;;;;;;5014330;28;20461;-71
2023/06/16 02:29:29;;;;;;;2.07;1.97;;;13.60;99.90;;;;;;5014239;28;20467;-71
2023/06/16 02:31:55;;;;;;;2.20;2.10;;;13.40;99.90;;;;;;5014379;28;20898;-70
2023/06/16 02:34:20;;;;;;;2.50;2.30;;;13.40;99.90;;;;;;5014479;28;20402;-70
2023/06/16 02:36:46;;;;;;;1.90;1.80;;;13.50;99.90;;;;;;5014213;28;20534;-71
2023/06/16 02:39:13;;;;;;;1.70;1.60;;;13.40;99.90;;;;;;5014150;28;20179;-70
2023/06/16 02:41:40;;;;;;;1.67;1.60;;;13.30;99.90;;;;;;5014004;28;20182;-71
2023/06/16 02:44:06;;;;;;;2.97;2.77;;;13.20;99.90;;;;;;5014013;28;20416;-70
2023/06/16 02:46:32;;;;;;;1.27;1.27;;;13.20;99.90;;;;;;5013455;28;20462;-70
2023/06/16 02:48:57;;;;;;;2.23;2.10;;;13.10;99.90;;;;;;5013966;28;20234;-71
2023/06/16 02:51:23;;;;;;;1.13;1.13;;;13.00;99.90;;;;;;5013779;28;20167;-70
2023/06/16 02:53:49;;;;;;;1.10;1.10;;;13.00;99.90;;;;;;5014109;28;20181;-70
2023/06/16 02:56:15;;;;;;;1.93;1.83;;;13.10;99.90;;;;;;5013751;28;20534;-70
2023/06/16 02:58:40;;;;;;;0.80;0.80;;;13.00;99.90;;;;;;5014064;28;20406;-71
2023/06/16 03:01:06;;;;;;;2.67;2.13;;;13.00;99.90;;;;;;5013719;28;20201;-70
2023/06/16 03:03:34;;;;;;;2.57;2.37;;;;;;;;;;5013923;28;20540;-70
2023/06/16 03:06:00;;;;;;;2.13;1.97;;;12.70;99.90;;;;;;5013720;28;20192;-71
2023/06/16 03:08:26;;;;;;;1.60;1.50;;;12.80;99.90;;;;;;5013661;28;20444;-71
2023/06/16 03:10:51;;;;;;;2.20;1.97;;;12.70;99.90;;;;;;5013869;28;20398;-70
2023/06/16 03:13:18;;;;;;;1.23;0.87;;;12.80;99.90;;;;;;5013445;28;20442;-70
2023/06/16 03:15:44;;;;;;;1.27;1.17;;;12.70;99.90;;;;;;5013761;28;20654;-70
2023/06/16 03:18:10;;;;;;;1.27;1.20;;;12.70;99.90;;;;;;5013593;28;20431;-70
2023/06/16 03:20:36;;;;;;;1.40;1.30;;;12.60;99.90;;;;;;5013751;28;20773;-70
2023/06/16 03:23:02;;;;;;;2.80;2.60;;;;;;;;;;5013619;28;20485;-71
2023/06/16 03:25:32;;;;;;;3.23;2.97;;;12.60;99.90;;;;;;5013677;28;20166;-71
2023/06/16 03:27:58;;;;;;;1.77;1.67;;;12.60;99.90;;;;;;5013604;28;20456;-71
2023/06/16 03:30:24;;;;;;;1.00;0.80;;;12.60;99.90;;;;;;5013674;28;20411;-70
2023/06/16 03:32:50;;;;;;;2.00;1.80;;;12.50;99.90;;;;;;5013493;28;20482;-70
2023/06/16 03:35:17;;;;;;;0.97;0.90;;;12.50;99.90;;;;;;5011170;28;20174;-70
2023/06/16 03:37:43;;;;;;;1.63;1.00;;;12.40;99.90;;;;;;5013590;28;20195;-70
2023/06/16 03:40:09;;;;;;;2.70;1.10;;;12.30;99.90;;;;;;5013039;28;20410;-70
2023/06/16 03:42:35;;;;;;;1.90;1.80;;;12.20;99.90;;;;;;5013338;28;20205;-71
2023/06/16 03:45:03;;;;;;;1.47;1.37;;;12.20;99.90;;;;;;5013632;28;20408;-71
2023/06/16 03:47:29;;;;;;;1.47;1.43;;;12.20;99.90;;;;;;5013352;28;20454;-70
2023/06/16 03:49:55;;;;;;;2.47;2.27;;;12.20;99.90;;;;;;5013337;28;20901;-70
2023/06/16 03:52:21;;;;;;;0.90;0.90;;;12.20;99.90;;;;;;5013218;28;20419;-70
2023/06/16 03:54:49;;;;;;;1.03;0.90;;;12.30;99.90;;;;;;5013274;28;20632;-70
2023/06/16 03:57:14;;;;;;;2.17;1.97;;;12.40;99.90;;;;;;5013241;28;20438;-69
2023/06/16 03:59:40;;;;;;;2.57;1.27;;;12.40;99.90;;;;;;5016594;28;20804;-71
2023/06/16 04:02:07;;;;;;;3.20;2.90;;;12.30;99.90;;;;;;5016886;28;20178;-70
2023/06/16 04:04:36;;;;;;;0.97;0.97;;;12.40;99.90;;;;;;5017111;28;20413;-70
2023/06/16 04:07:09;;;;;;;1.07;0.97;;;12.40;99.90;;;;;;5016913;28;20551;-70
2023/06/16 04:09:34;;;;;;;2.10;1.77;;;12.40;99.90;;;;;;5016724;28;20495;-70
2023/06/16 04:12:00;;;;;;;1.20;1.10;;;12.40;99.90;;;;;;5016826;28;20402;-69
2023/06/16 04:14:26;;;;;;;5.30;1.10;;;12.50;99.90;;;;;;5016842;28;20167;-72
2023/06/16 04:16:51;;;;;;;1.83;1.23;;;12.60;99.90;;;;;;5016749;28;20210;-73
2023/06/16 04:19:20;;;;;;;0.70;0.70;;;12.60;99.90;;;;;;5016620;28;20200;-71
2023/06/16 04:21:46;;;;;;;2.03;1.93;;;12.60;99.90;;;;;;5016427;28;20174;-71
2023/06/16 04:24:11;;;;;;;1.93;1.63;;;12.70;99.90;;;;;;5016764;28;20431;-70
2023/06/16 04:26:41;;;;;;;3.27;2.80;;;12.80;99.90;;;;;;5016382;28;20461;-71
2023/06/16 04:29:07;;;;;;;1.70;1.60;;;12.90;99.90;;;;;;5016660;28;20324;-71
2023/06/16 04:31:35;;;;;;;1.13;1.13;;;13.20;99.90;;;;;;5016375;28;20442;-70
2023/06/16 04:34:04;;;;;;;2.10;1.50;;;13.70;99.90;;;;;;5016432;28;20406;-70
2023/06/16 04:36:30;;;;;;;2.10;1.77;;;14.20;99.90;;;;;;5016259;28;20918;-71
2023/06/16 04:38:57;;;;;;;1.23;1.23;;;14.40;99.90;;;;;;5016316;28;20541;-70
2023/06/16 04:41:23;;;;;;;2.20;2.10;;;14.50;99.90;;;;;;5016133;28;20415;-70
2023/06/16 04:43:49;;;;;;;1.50;1.40;;;14.40;99.90;;;;;;5016395;28;20497;-73
2023/06/16 04:46:14;;;;;;;1.97;1.87;;;14.30;99.90;;;;;;5016157;28;20538;-71
2023/06/16 04:48:41;;;;;;;6.37;1.27;;;;;;;;;;5016131;28;20247;-71
2023/06/16 04:51:06;;;;;;;2.00;1.50;;;14.40;99.90;;;;;;5015921;28;20639;-71
2023/06/16 04:53:32;;;;;;;1.03;1.03;;;14.40;99.90;;;;;;5016125;28;20430;-70
2023/06/16 04:55:58;;;;;;;2.20;1.67;;;14.40;99.90;;;;;;5016133;28;20268;-71
2023/06/16 04:58:23;;;;;;;1.53;1.43;;;14.50;99.90;;;;;;5016021;28;20236;-71
2023/06/16 05:00:50;;;;;;;1.97;1.87;;;14.60;99.90;;;;;;5016087;28;20570;-70
2023/06/16 05:03:16;;;;;;;0.90;0.90;;;14.70;99.90;;;;;;5015583;28;20190;-71
2023/06/16 05:05:42;;;;;;;1.63;1.30;;;14.80;99.90;;;;;;5015707;28;20437;-70
2023/06/16 05:08:07;;;;;;;2.97;1.90;;;14.90;99.60;;;;;;5015556;28;20460;-70
2023/06/16 05:10:33;;;;;;;2.30;2.10;;;15.00;99.50;;;;;;5015426;28;20174;-70
2023/06/16 05:12:59;;;;;;;2.77;2.50;;;15.10;99.50;;;;;;5015521;28;20168;-70
2023/06/16 05:15:24;;;;;;;1.20;1.20;;;15.20;99.60;;;;;;5015849;28;20175;-71
2023/06/16 05:17:50;;;;;;;8.40;3.43;;;15.20;99.90;;;;;;5015724;28;20192;-71
2023/06/16 05:20:15;;;;;;;1.83;1.67;;;15.10;99.90;;;;;;5015573;28;20529;-71
2023/06/16 05:22:41;;;;;;;1.40;1.30;;;15.10;99.90;;;;;;5015422;28;20546;-70
2023/06/16 05:25:07;;;;;;;1.20;1.20;;;15.20;99.80;;;;;;5015560;28;20244;-71
2023/06/16 05:27:33;;;;;;;2.37;2.27;;;15.30;99.50;;;;;;5015337;28;20210;-71
2023/06/16 05:29:59;;;;;;;2.17;1.97;;;15.40;99.60;;;;;;5015490;28;20486;-71
2023/06/16 05:32:24;;;;;;;1.60;1.60;;;15.70;99.90;;;;;;5015128;28;20176;-70
2023/06/16 05:34:51;;;;;;;1.90;1.80;;;15.90;99.70;;;;;;5015315;28;20254;-71
2023/06/16 05:37:18;;;;;;;1.13;1.10;;;16.10;99.30;;;;;;5015298;28;20934;-71
2023/06/16 05:39:45;;;;;;;3.17;3.00;;;16.20;98.80;;;;;;5015493;28;20957;-70
2023/06/16 05:42:13;;;;;;;1.70;1.60;;;16.30;98.50;;;;;;5014934;28;20421;-71
2023/06/16 05:44:42;;;;;;;1.13;1.13;;;16.40;97.90;;;;;;5014652;28;20984;-71
2023/06/16 05:47:10;;;;;;;4.20;3.03;;;16.60;98.20;;;;;;5014914;28;20465;-71
2023/06/16 05:49:40;;;;;;;3.30;2.10;;;16.90;98.60;;;;;;5015023;28;20399;-72
2023/06/16 05:52:09;;;;;;;2.20;2.00;;;17.10;97.90;;;;;;4997265;28;20773;-72
2023/06/16 05:54:36;;;;;;;1.33;0.80;;;17.40;97.10;;;;;;5013591;28;20514;-71
2023/06/16 05:57:03;;;;;;;1.07;1.07;;;17.60;97.10;;;;;;5014430;28;20506;-72
2023/06/16 05:59:28;;;;;;;1.27;1.17;;;17.90;96.70;;;;;;5015030;28;20739;-72
2023/06/16 06:01:57;;;;;;;1.77;1.67;;;18.00;96.50;;;;;;5014316;28;20439;-72
2023/06/16 06:04:28;;;;;;;1.70;1.40;;;18.20;96.60;;;;;;4981224;28;20181;-73
2023/06/16 06:06:54;;;;;;;1.10;1.10;;;18.40;95.00;;;;;;5013629;28;20465;-74
2023/06/16 06:09:20;;;;;;;1.60;1.50;;;18.80;94.80;;;;;;5013432;28;20422;-73
2023/06/16 06:11:46;;;;;;;1.47;1.30;;;19.30;94.50;;;;;;5014294;28;20404;-73
2023/06/16 06:14:11;;;;;;;2.33;1.90;;;20.00;93.20;;;;;;5014721;28;20167;-73
2023/06/16 06:16:40;;;;;;;1.40;1.30;;;20.90;91.40;;;;;;5013752;28;20199;-72
2023/06/16 06:19:06;;;;;;;1.20;0.93;;;21.60;87.20;;;;;;5013953;28;20171;-74
2023/06/16 06:21:33;;;;;;;1.70;1.30;;;22.40;89.30;;;;;;5013016;28;20403;-74
2023/06/16 06:24:00;;;;;;;0.63;0.63;;;23.70;86.30;;;;;;5014214;28;20409;-74
2023/06/16 06:26:26;;;;;;;1.60;1.50;;;25.50;81.90;;;;;;5012606;28;20868;-72
2023/06/16 06:28:52;;;;;;;2.03;1.80;;;27.30;70.50;;;;;;5013767;28;20445;-73
2023/06/16 06:31:18;;;;;;;1.73;1.63;;;28.90;64.00;;;;;;5013366;28;20168;-74
2023/06/16 06:33:45;;;;;;;1.27;0.93;;;30.40;58.80;;;;;;5013003;28;20997;-73
2023/06/16 06:36:11;;;;;;;0.90;0.90;;;32.70;60.90;;;;;;5013607;28;20531;-74
2023/06/16 06:38:37;;;;;;;1.03;0.93;;;32.70;53.40;;;;;;5014185;28;20461;-73
2023/06/16 06:41:02;;;;;;;1.10;1.00;;;33.60;50.10;;;;;;5014203;28;20176;-72
2023/06/16 06:43:28;;;;;;;1.10;1.00;;;33.90;45.80;;;;;;5014126;28;20677;-72
2023/06/16 06:45:54;;;;;;;1.20;1.10;;;34.20;46.60;;;;;;5014031;28;20192;-73
2023/06/16 06:48:20;;;;;;;1.40;0.83;;;34.40;45.50;;;;;;5013900;28;20194;-72
2023/06/16 06:50:47;;;;;;;1.37;1.27;;;34.20;44.40;;;;;;5013935;28;20168;-74
2023/06/16 06:53:13;;;;;;;1.77;1.67;;;33.90;45.40;;;;;;5013941;28;20433;-72
2023/06/16 06:55:39;;;;;;;1.57;1.47;;;33.60;43.10;;;;;;5013850;28;20868;-73
2023/06/16 06:58:05;;;;;;;0.87;0.87;;;33.80;43.90;;;;;;5013845;28;20206;-71
2023/06/16 07:00:30;;;;;;;1.70;1.27;;;34.20;42.70;;;;;;5013869;28;20194;-72
2023/06/16 07:02:56;;;;;;;1.50;1.40;;;34.50;40.90;;;;;;5013789;28;20179;-72
2023/06/16 07:05:21;;;;;;;0.77;0.77;;;34.60;41.30;;;;;;5013862;28;20163;-72
2023/06/16 07:07:47;;;;;;;1.00;1.00;;;34.00;43.30;;;;;;5013734;28;20752;-71
2023/06/16 07:10:13;;;;;;;0.93;0.93;;;32.70;41.00;;;;;;5013782;28;20642;-71
2023/06/16 07:12:38;;;;;;;2.00;1.37;;;30.90;43.80;;;;;;5013647;28;20261;-71
2023/06/16 07:15:04;;;;;;;1.37;1.27;;;28.90;48.10;;;;;;5013937;28;20175;-71
2023/06/16 07:17:31;;;;;;;1.13;1.00;;;27.00;51.90;;;;;;5013576;28;20206;-70
2023/06/16 07:19:57;;;;;;;0.70;0.70;;;25.60;55.30;;;;;;5013810;28;20406;-71
2023/06/16 07:22:22;;;;;;;0.83;0.83;;;24.50;57.50;;;;;;5013454;28;20472;-70
2023/06/16 07:24:48;;;;;;;1.37;0.87;;;23.70;60.60;;;;;;5013737;28;20171;-71
2023/06/16 07:27:14;;;;;;;1.13;1.13;;;22.90;62.90;;;;;;5013660;28;20215;-70
2023/06/16 07:29:40;;;;;;;1.10;1.10;;;22.30;65.30;;;;;;5013602;28;20167;-70
2023/06/16 07:32:06;;;;;;;1.60;1.17;;;21.70;65.50;;;;;;5013419;28;20282;-72
2023/06/16 07:34:32;;;;;;;0.90;0.80;;;21.40;65.80;;;;;;5016950;28;20410;-72
2023/06/16 07:36:58;;;;;;;0.83;0.50;;;21.20;68.80;;;;;;5017559;28;20437;-72
2023/06/16 07:39:25;;;;;;;1.20;1.20;;;21.10;69.20;;;;;;5017626;28;20414;-71
2023/06/16 07:41:50;;;;;;;2.27;1.20;;;20.90;71.80;;;;;;5016811;28;20469;-70
2023/06/16 07:44:16;;;;;;;1.20;1.10;;;20.90;71.10;;;;;;5017463;28;20658;-70
2023/06/16 07:46:45;;;;;;;0.80;0.80;;;21.60;68.70;;;;;;5016277;28;20304;-70
2023/06/16 07:49:13;;;;;;;0.80;0.77;;;23.00;64.80;;;;;;5017226;28;20377;-71
2023/06/16 07:51:40;;;;;;;1.80;0.73;;;25.00;58.70;;;;;;5017032;28;20438;-70
2023/06/16 07:54:07;;;;;;;0.90;0.90;;;27.10;59.50;;;;;;5017289;28;20398;-72
2023/06/16 07:56:33;;;;;;;1.90;0.90;;;29.30;50.50;;;;;;5016759;28;20598;-72
2023/06/16 07:58:58;;;;;;;1.50;1.33;;;31.30;48.00;;;;;;5016859;28;20445;-72
2023/06/16 08:01:24;;;;;;;1.17;1.07;;;32.90;44.80;;;;;;5016911;28;20231;-73
2023/06/16 08:03:50;;;;;;;1.47;1.37;;;34.40;44.40;;;;;;5016586;28;20175;-72
2023/06/16 08:06:16;;;;;;;1.63;1.27;;;36.80;46.00;;;;;;5017048;28;20671;-71
2023/06/16 08:08:42;;;;;;;0.97;0.97;;;36.50;37.20;;;;;;5016864;28;20255;-71
2023/06/16 08:11:08;;;;;;;1.73;1.00;;;36.20;34.80;;;;;;5016746;28;20402;-71
2023/06/16 08:13:34;;;;;;;1.47;1.37;;;34.30;30.90;;;;;;5017079;28;20168;-71
2023/06/16 08:16:00;;;;;;;1.37;1.23;;;32.70;35.20;;;;;;5016889;28;20535;-71
2023/06/16 08:18:26;;;;;;;1.73;1.03;;;31.20;35.50;;;;;;5016610;28;20949;-71
2023/06/16 08:20:52;;;;;;;1.10;1.00;;;30.20;36.10;;;;;;5016805;28;20456;-71
2023/06/16 08:23:18;;;;;;;1.70;1.23;;;30.60;38.30;;;;;;5016710;28;20167;-71
2023/06/16 08:25:43;;;;;;;0.80;0.80;;;31.80;37.10;;;;;;5016454;28;20497;-71
2023/06/16 08:28:09;;;;;;;1.73;1.27;;;33.10;37.00;;;;;;5016483;28;20517;-72
2023/06/16 08:30:35;;;;;;;1.03;1.03;;;34.30;34.00;;;;;;5016402;28;20734;-72
2023/06/16 08:33:02;;;;;;;1.00;1.00;;;35.10;34.70;;;;;;5016414;28;20485;-72
2023/06/16 08:35:29;;;;;;;1.27;1.17;;;35.30;31.60;;;;;;5016633;28;20483;-72
2023/06/16 08:37:55;;;;;;;2.03;1.03;;;35.50;32.10;;;;;;5016317;28;20466;-72
2023/06/16 08:40:21;;;;;;;1.30;1.20;;;35.40;32.20;;;;;;5016324;28;20426;-72
2023/06/16 08:42:47;;;;;;;1.63;1.40;;;35.40;30.10;;;;;;5016236;28;20438;-72
2023/06/16 08:45:14;;;;;;;1.10;0.90;;;34.60;30.70;;;;;;5015269;28;20172;-72
2023/06/16 08:47:42;;;;;;;0.90;0.90;;;33.40;32.70;;;;;;5016153;28;20508;-72
2023/06/16 08:50:09;;;;;;;1.10;1.00;;;32.10;34.70;;;;;;5015997;28;20411;-71
2023/06/16 08:52:39;;;;;;;1.00;1.00;;;31.20;34.20;;;;;;5015963;28;20930;-71
2023/06/16 08:55:08;;;;;;;0.83;0.80;;;31.60;34.00;;;;;;5016236;28;20879;-71
2023/06/16 08:57:46;;;;;;;1.80;1.17;;;32.30;34.60;;;;;;5015964;28;20457;-71
2023/06/16 09:00:14;;;;;;;2.13;1.10;;;33.40;34.90;;;;;;5015527;28;20429;-70
2023/06/16 09:02:41;;;;;;;1.33;1.23;;;35.00;33.50;;;;;;5015084;28;20941;-71
2023/06/16 09:05:10;;;;;;;1.77;1.67;;;36.30;30.00;;;;;;5015833;28;20421;-71
2023/06/16 09:07:39;;;;;;;0.90;0.90;;;36.90;28.20;;;;;;5015802;28;20485;-71
2023/06/16 09:10:05;;;;;;;1.00;1.00;;;37.10;29.20;;;;;;5015770;28;20411;-71
2023/06/16 09:12:31;;;;;;;1.03;0.97;;;37.30;28.50;;;;;;5015626;28;20407;-71
2023/06/16 09:14:57;;;;;;;1.53;1.40;;;37.30;27.20;;;;;;5015380;28;20794;-70
2023/06/16 09:17:30;;;;;;;0.93;0.90;;;36.90;28.40;;;;;;5015720;28;20258;-71
2023/06/16 09:19:56;;;;;;;2.70;2.50;;;36.40;27.40;;;;;;5015660;28;20191;-71
2023/06/16 09:22:26;;;;;;;1.90;1.80;;;36.20;29.30;;;;;;5013492;28;20456;-71
2023/06/16 09:24:59;;;;;;;1.40;1.30;;;36.10;27.70;;;;;;5015638;28;20411;-71
2023/06/16 09:27:46;;;;;;;2.60;1.30;;;35.90;28.50;;;;;;5014256;28;20462;-71
2023/06/16 09:30:18;;;;;;;1.53;1.43;;;35.70;29.80;;;;;;5015343;28;20403;-70
2023/06/16 09:32:45;;;;;;;2.00;1.00;;;35.70;29.10;;;;;;5015312;28;20452;-71
2023/06/16 09:35:24;;;;;;;1.20;1.10;;;35.80;27.10;;;;;;5015341;28;20411;-70
2023/06/16 09:37:52;;;;;;;2.00;1.03;;;36.00;27.20;;;;;;5015107;28;20422;-71
2023/06/16 09:40:19;;;;;;;1.17;1.07;;;36.40;26.90;;;;;;5015125;28;20775;-71
2023/06/16 09:42:47;;;;;;;1.10;1.03;;;36.30;25.90;;;;;;5014968;28;20545;-70
2023/06/16 09:45:14;;;;;;;1.50;1.40;;;36.40;28.00;;;;;;5015021;28;20414;-71
2023/06/16 09:47:48;;;;;;;1.67;1.27;;;36.00;28.00;;;;;;5015124;28;20458;-71
2023/06/16 09:50:15;;;;;;;1.53;1.43;;;35.50;27.60;;;;;;5015270;28;20427;-70
2023/06/16 09:52:43;;;;;;;1.70;1.60;;;35.20;28.20;;;;;;5014764;28;20398;-71
2023/06/16 09:55:09;;;;;;;1.73;1.50;;;34.80;28.00;;;;;;5014854;28;20407;-71
2023/06/16 09:57:36;;;;;;;1.13;1.00;;;34.40;26.60;;;;;;5014612;28;20430;-70
2023/06/16 10:00:06;;;;;;;2.60;1.20;;;34.50;27.70;;;;;;5014951;28;20414;-71
2023/06/16 10:02:33;;;;;;;1.30;0.93;;;34.70;27.40;;;;;;5014801;28;20442;-70
2023/06/16 10:05:06;;;;;;;1.57;1.47;;;34.30;28.00;;;;;;5014767;28;20414;-70
2023/06/16 10:07:33;;;;;;;1.07;1.00;;;33.80;28.30;;;;;;5014912;28;20453;-70
2023/06/16 10:10:00;;;;;;;1.33;1.23;;;33.50;27.80;;;;;;5014550;28;20423;-71
2023/06/16 10:12:27;;;;;;;1.53;1.40;;;33.60;30.60;;;;;;5014495;28;20409;-70
2023/06/16 10:14:55;;;;;;;1.07;0.90;;;33.60;29.40;;;;;;5014677;28;20430;-70
2023/06/16 10:17:21;;;;;;;1.20;1.20;;;33.30;27.40;;;;;;5014472;28;20484;-70
2023/06/16 10:19:51;;;;;;;3.27;1.60;;;33.10;28.10;;;;;;5014386;28;20446;-71
2023/06/16 10:22:17;;;;;;;3.47;1.33;;;32.90;28.60;;;;;;5013997;28;20172;-71
2023/06/16 10:24:43;;;;;;;1.63;1.30;;;32.90;27.60;;;;;;5014418;28;20465;-72
2023/06/16 10:27:10;;;;;;;2.13;1.50;;;32.90;28.60;;;;;;5014469;28;20460;-71
2023/06/16 10:29:38;;;;;;;1.17;1.07;;;32.70;28.30;;;;;;5014724;28;20409;-71
2023/06/16 10:32:08;;;;;;;1.33;1.23;;;32.60;29.00;;;;;;5014500;28;20969;-71
2023/06/16 10:34:51;;;;;;;1.27;1.00;;;32.60;27.10;;;;;;5012872;28;20640;-71
2023/06/16 10:37:21;;;;;;;2.97;1.40;;;32.70;27.90;;;;;;5014050;28;20423;-71
2023/06/16 10:39:47;;;;;;;1.17;1.07;;;32.70;29.60;;;;;;5014417;28;20426;-71
2023/06/16 10:42:14;;;;;;;2.90;1.13;;;32.30;28.20;;;;;;5013967;28;20442;-71
2023/06/16 10:44:42;;;;;;;1.00;0.90;;;31.70;30.70;;;;;;5014290;28;20164;-71
2023/06/16 10:47:25;;;;;;;1.00;0.80;;;31.40;29.40;;;;;;4996252;28;20981;-71
2023/06/16 10:50:00;;;;;;;1.40;1.30;;;30.90;28.10;;;;;;5014303;28;20395;-71
2023/06/16 10:52:28;;;;;;;1.23;1.13;;;30.70;30.20;;;;;;5014088;28;20398;-71
2023/06/16 10:54:55;;;;;;;2.77;1.43;;;30.60;32.10;;;;;;5014059;28;20921;-71
2023/06/16 10:57:22;;;;;;;4.20;1.60;;;30.50;30.80;;;;;;5013969;28;20426;-71
2023/06/16 11:00:06;;;;;;;1.80;1.03;;;30.30;28.70;;;;;;5014126;28;20417;-71
2023/06/16 11:02:34;;;;;;;1.13;1.03;;;29.80;29.70;;;;;;5013774;28;20461;-71
2023/06/16 11:05:10;;;;;;;1.37;1.27;;;28.80;30.10;;;;;;5013959;28;20409;-70
2023/06/16 11:07:58;;;;;;;1.23;1.00;;;27.90;32.50;;;;;;5013255;28;20491;-71
2023/06/16 11:10:24;;;;;;;1.53;1.10;;;27.10;32.90;;;;;;5013708;28;20410;-71
2023/06/16 11:12:50;;;;;;;0.90;0.73;;;26.60;32.50;;;;;;5013557;28;20381;-71
2023/06/16 11:15:18;;;;;;;1.40;1.03;;;26.40;32.60;;;;;;5013805;28;20376;-71
2023/06/16 11:17:45;;;;;;;1.80;1.40;;;26.60;33.00;;;;;;5013522;28;20286;-71
2023/06/16 11:20:13;;;;;;;0.90;0.90;;;26.60;33.40;;;;;;5014255;28;20414;-71
2023/06/16 11:22:39;;;;;;;1.80;1.70;;;26.70;30.10;;;;;;4997055;28;20893;-71
2023/06/16 11:25:07;;;;;;;1.03;0.90;;;26.60;31.30;;;;;;5013637;28;20414;-70
2023/06/16 11:27:33;;;;;;;1.43;1.23;;;26.70;34.40;;;;;;5014060;28;20439;-71
2023/06/16 11:30:01;;;;;;;1.47;1.37;;;26.80;32.70;;;;;;4996147;28;20893;-71
2023/06/16 11:32:34;;;;;;;1.07;1.07;;;26.80;34.80;;;;;;5013368;28;20417;-71
2023/06/16 11:35:01;;;;;;;1.40;1.07;;;26.30;33.20;;;;;;5013519;28;20410;-71
2023/06/16 11:37:41;;;;;;;1.97;1.73;;;26.00;35.70;;;;;;5013654;28;20461;-71
2023/06/16 11:40:07;;;;;;;0.73;0.70;;;25.90;35.10;;;;;;5012165;28;20377;-71
2023/06/16 11:42:33;;;;;;;1.80;1.50;;;25.70;35.90;;;;;;5012680;28;20811;-71
2023/06/16 11:44:59;;;;;;;0.80;0.80;;;25.70;36.10;;;;;;5013268;28;20771;-71
2023/06/16 11:47:25;;;;;;;1.50;1.00;;;25.80;37.70;;;;;;5013187;28;20443;-71
2023/06/16 11:49:51;;;;;;;1.67;1.10;;;25.70;35.80;;;;;;5013389;28;20196;-70
2023/06/16 11:52:17;;;;;;;1.13;1.00;;;25.70;35.30;;;;;;5013307;28;20374;-71
2023/06/16 11:54:43;;;;;;;1.40;1.30;;;25.50;34.70;;;;;;5013485;28;20448;-70
2023/06/16 11:57:09;;;;;;;1.43;1.33;;;25.20;35.70;;;;;;4995750;28;20434;-70
2023/06/16 11:59:35;;;;;;;1.50;1.27;;;25.20;37.70;;;;;;5013337;28;20179;-70
2023/06/16 12:02:03;;;;;;;2.10;1.13;;;25.10;34.40;;;;;;5013074;28;20411;-70
2023/06/16 12:04:31;;;;;;;1.50;1.20;;;25.00;34.10;;;;;;5013270;28;20773;-71
2023/06/16 12:06:57;;;;;;;0.80;0.80;;;25.00;38.80;;;;;;5013151;28;20492;-71
2023/06/16 12:09:35;;;;;;;1.57;1.47;;;25.00;35.60;;;;;;5013146;28;20860;-71
2023/06/16 12:12:04;;;;;;;2.53;2.40;;;25.00;37.20;;;;;;5013093;28;20925;-70
2023/06/16 12:14:34;;;;;;;1.60;1.07;;;24.80;35.20;;;;;;5012790;28;20853;-70
2023/06/16 12:17:00;;;;;;;1.27;1.17;;;24.90;38.10;;;;;;5012043;28;20457;-71
2023/06/16 12:19:27;;;;;;;2.10;1.67;;;24.80;38.10;;;;;;5014448;28;20399;-71
2023/06/16 12:22:00;;;;;;;3.27;0.80;;;24.80;38.20;;;;;;5016571;28;20580;-71
2023/06/16 12:24:27;;;;;;;0.97;0.97;;;24.90;36.30;;;;;;5016956;28;20406;-71
2023/06/16 12:26:53;;;;;;;2.40;1.70;;;25.00;35.70;;;;;;5016538;28;20465;-72
2023/06/16 12:29:20;;;;;;;1.23;0.90;;;25.30;34.40;;;;;;5016581;28;20409;-70
2023/06/16 12:31:54;;;;;;;1.07;1.07;;;25.30;33.00;;;;;;5016375;28;20377;-71
2023/06/16 12:34:30;;;;;;;0.70;0.70;;;25.40;33.40;;;;;;5016558;28;20376;-70
2023/06/16 12:37:13;;;;;;;1.30;1.20;;;25.40;36.70;;;;;;5016098;28;20933;-72
2023/06/16 12:39:54;;;;;;;1.63;1.50;;;25.30;39.10;;;;;;5016610;28;20824;-73
2023/06/16 12:42:28;;;;;;;1.10;0.97;;;25.00;40.70;;;;;;5016342;28;20730;-73
2023/06/16 12:44:55;;;;;;;1.60;1.50;;;24.50;39.70;;;;;;5016617;28;20437;-71
2023/06/16 12:47:23;;;;;;;5.20;0.90;;;24.00;39.90;;;;;;5016059;28;20468;-70
2023/06/16 12:49:51;;;;;;;1.87;1.60;;;23.80;38.60;;;;;;5016148;28;20830;-70